createdAt,value
2023-05-17T00:02:08.713Z,12.94
2023-05-17T00:04:36.220Z,13.05
2023-05-17T00:07:03.780Z,12.99
2023-05-17T00:09:31.277Z,13.00
2023-05-17T00:11:58.624Z,13.06
2023-05-17T00:14:26.009Z,13.24
2023-05-17T00:16:53.390Z,13.16
2023-05-17T00:19:21.421Z,13.02
2023-05-17T00:21:48.958Z,12.85
2023-05-17T00:24:16.225Z,12.83
2023-05-17T00:26:43.615Z,12.85
2023-05-17T00:29:10.944Z,12.79
2023-05-17T00:31:38.141Z,12.76
2023-05-17T00:34:05.378Z,12.80
2023-05-17T00:36:32.642Z,12.96
2023-05-17T00:39:01.636Z,12.91
2023-05-17T00:41:28.963Z,12.75
2023-05-17T00:43:56.336Z,12.71
2023-05-17T00:46:23.649Z,12.61
2023-05-17T00:48:51.231Z,12.68
2023-05-17T00:51:21.142Z,12.65
2023-05-17T00:53:48.762Z,12.79
2023-05-17T00:56:16.452Z,12.81
2023-05-17T00:58:43.898Z,12.82
2023-05-17T01:01:11.599Z,12.84
2023-05-17T01:03:39.020Z,12.72
2023-05-17T01:06:07.154Z,12.86
2023-05-17T01:08:35.993Z,12.74
2023-05-17T01:11:32.505Z,12.67
2023-05-17T01:14:28.034Z,12.74
2023-05-17T01:17:02.657Z,12.85
2023-05-17T01:20:21.589Z,12.97
2023-05-17T01:23:21.054Z,12.81
2023-05-17T01:26:30.201Z,12.73
2023-05-17T01:28:59.973Z,12.81
2023-05-17T01:31:27.642Z,12.70
2023-05-17T01:33:59.731Z,12.66
2023-05-17T01:36:28.582Z,12.53
2023-05-17T01:38:55.875Z,12.60
2023-05-17T01:41:30.886Z,12.65
2023-05-17T01:44:38.139Z,12.72
2023-05-17T01:47:42.520Z,12.71
2023-05-17T01:50:13.130Z,12.59
2023-05-17T01:52:55.309Z,12.59
2023-05-17T01:55:54.329Z,12.51
2023-05-17T01:58:26.750Z,12.38
2023-05-17T02:00:58.485Z,12.49
2023-05-17T02:03:29.528Z,12.40
2023-05-17T02:05:56.994Z,12.43
2023-05-17T02:08:24.395Z,12.41
2023-05-17T02:10:52.040Z,12.42
2023-05-17T02:13:19.330Z,12.39
2023-05-17T02:15:47.052Z,12.31
2023-05-17T02:18:14.705Z,12.41
2023-05-17T02:20:42.214Z,12.67
2023-05-17T02:23:09.654Z,12.59
2023-05-17T02:25:36.930Z,12.74
2023-05-17T02:28:04.422Z,12.62
2023-05-17T02:30:31.940Z,12.60
2023-05-17T02:32:59.673Z,12.60
2023-05-17T02:35:27.300Z,12.63
2023-05-17T02:37:54.786Z,12.66
2023-05-17T02:40:22.272Z,12.75
2023-05-17T02:42:49.517Z,12.77
2023-05-17T02:45:16.968Z,12.80
2023-05-17T02:47:44.387Z,12.63
2023-05-17T02:50:11.779Z,12.61
2023-05-17T02:52:39.530Z,12.58
2023-05-17T02:55:08.037Z,12.62
2023-05-17T02:57:35.467Z,12.81
2023-05-17T03:00:03.788Z,12.87
2023-05-17T03:02:31.477Z,12.78
2023-05-17T03:04:59.407Z,12.68
2023-05-17T03:07:27.173Z,12.62
2023-05-17T03:09:55.275Z,12.56
2023-05-17T03:12:23.734Z,12.29
2023-05-17T03:14:51.278Z,12.42
2023-05-17T03:17:20.624Z,12.39
2023-05-17T03:19:48.059Z,12.53
2023-05-17T03:22:15.490Z,12.47
2023-05-17T03:24:42.824Z,12.51
2023-05-17T03:27:10.809Z,12.32
2023-05-17T03:29:38.396Z,12.42
2023-05-17T03:32:06.729Z,12.15
2023-05-17T03:34:34.098Z,12.08
2023-05-17T03:37:01.936Z,12.27
2023-05-17T03:39:29.293Z,12.24
2023-05-17T03:41:56.831Z,12.28
2023-05-17T03:44:25.132Z,12.41
2023-05-17T03:46:53.830Z,12.45
2023-05-17T03:49:22.507Z,12.10
2023-05-17T03:51:50.925Z,11.95
2023-05-17T03:54:19.000Z,11.97
2023-05-17T03:56:49.069Z,12.00
2023-05-17T03:59:17.327Z,11.82
2023-05-17T04:01:45.626Z,11.78
2023-05-17T04:04:14.584Z,11.69
2023-05-17T04:06:42.167Z,11.70
2023-05-17T04:09:11.218Z,11.82
2023-05-17T04:11:41.158Z,11.87
2023-05-17T04:14:08.693Z,11.73
2023-05-17T04:16:36.738Z,11.80
2023-05-17T04:19:04.961Z,11.82
2023-05-17T04:21:32.525Z,11.86
2023-05-17T04:23:59.802Z,11.77
2023-05-17T04:26:27.751Z,11.88
2023-05-17T04:28:55.080Z,11.62
2023-05-17T04:31:23.807Z,11.48
2023-05-17T04:33:51.726Z,11.50
2023-05-17T04:36:19.152Z,11.32
2023-05-17T04:38:46.646Z,11.13
2023-05-17T04:41:18.031Z,11.27
2023-05-17T04:43:45.410Z,11.18
2023-05-17T04:46:20.667Z,11.27
2023-05-17T04:48:48.345Z,11.38
2023-05-17T04:51:15.908Z,11.04
2023-05-17T04:53:43.303Z,11.03
2023-05-17T04:56:15.655Z,10.91
2023-05-17T04:58:43.648Z,10.89
2023-05-17T05:01:12.110Z,10.70
2023-05-17T05:03:40.439Z,10.77
2023-05-17T05:06:09.558Z,10.91
2023-05-17T05:08:37.715Z,10.68
2023-05-17T05:11:07.684Z,10.91
2023-05-17T05:13:35.113Z,11.06
2023-05-17T05:16:02.562Z,10.77
2023-05-17T05:18:29.979Z,10.68
2023-05-17T05:20:57.874Z,10.64
2023-05-17T05:23:25.820Z,10.75
2023-05-17T05:25:53.311Z,10.81
2023-05-17T05:28:20.885Z,10.75
2023-05-17T05:30:49.036Z,10.81
2023-05-17T05:33:16.546Z,10.65
2023-05-17T05:35:44.183Z,10.87
2023-05-17T05:38:11.860Z,10.51
2023-05-17T05:40:40.042Z,10.66
2023-05-17T05:43:07.409Z,10.46
2023-05-17T05:45:34.672Z,10.81
2023-05-17T05:48:05.716Z,10.59
2023-05-17T05:50:35.338Z,10.68
2023-05-17T05:53:18.132Z,10.32
2023-05-17T05:55:51.343Z,10.44
2023-05-17T05:58:19.428Z,10.47
2023-05-17T06:00:47.790Z,10.52
2023-05-17T06:03:15.677Z,10.47
2023-05-17T06:05:43.278Z,10.70
2023-05-17T06:08:10.791Z,10.29
2023-05-17T06:10:37.991Z,10.29
2023-05-17T06:13:05.433Z,10.33
2023-05-17T06:15:32.926Z,10.41
2023-05-17T06:18:00.537Z,10.47
2023-05-17T06:20:28.176Z,10.54
2023-05-17T06:22:55.772Z,10.57
2023-05-17T06:25:23.317Z,10.68
2023-05-17T06:27:50.826Z,10.64
2023-05-17T06:30:18.175Z,10.67
2023-05-17T06:32:45.451Z,10.71
2023-05-17T06:35:12.747Z,10.51
2023-05-17T06:37:39.947Z,10.56
2023-05-17T06:40:16.120Z,10.48
2023-05-17T06:42:44.638Z,10.66
2023-05-17T06:45:13.242Z,10.63
2023-05-17T06:47:41.369Z,10.72
2023-05-17T06:50:09.429Z,10.66
2023-05-17T06:52:37.183Z,10.52
2023-05-17T06:55:08.744Z,10.54
2023-05-17T06:57:37.195Z,10.54
2023-05-17T07:00:11.116Z,10.54
2023-05-17T07:02:38.686Z,10.56
2023-05-17T07:05:07.241Z,10.76
2023-05-17T07:07:35.295Z,10.75
2023-05-17T07:10:02.818Z,10.57
2023-05-17T07:12:30.199Z,10.68
2023-05-17T07:14:57.484Z,10.61
2023-05-17T07:17:24.861Z,10.63
2023-05-17T07:19:52.494Z,10.58
2023-05-17T07:22:20.275Z,10.60
2023-05-17T07:24:48.055Z,10.68
2023-05-17T07:27:17.920Z,10.90
2023-05-17T07:29:45.386Z,10.87
2023-05-17T07:32:12.901Z,10.88
2023-05-17T07:34:40.393Z,10.89
2023-05-17T07:37:07.642Z,10.72
2023-05-17T07:39:35.014Z,10.72
2023-05-17T07:42:04.529Z,10.84
2023-05-17T07:44:32.753Z,10.90
2023-05-17T07:47:00.317Z,10.94
2023-05-17T07:49:27.967Z,10.52
2023-05-17T07:51:55.740Z,10.85
2023-05-17T07:54:25.150Z,10.71
2023-05-17T07:56:55.086Z,10.87
2023-05-17T07:59:23.351Z,10.89
2023-05-17T08:01:51.277Z,11.00
2023-05-17T08:04:21.496Z,10.83
2023-05-17T08:06:50.223Z,10.91
2023-05-17T08:09:17.860Z,11.07
2023-05-17T08:11:48.759Z,10.94
2023-05-17T08:14:17.795Z,10.97
2023-05-17T08:16:46.893Z,11.09
2023-05-17T08:19:15.123Z,10.96
2023-05-17T08:21:44.783Z,10.90
2023-05-17T08:24:12.873Z,10.82
2023-05-17T08:26:40.995Z,11.05
2023-05-17T08:29:08.231Z,11.25
2023-05-17T08:31:35.715Z,10.93
2023-05-17T08:34:03.507Z,11.15
2023-05-17T08:36:31.090Z,10.98
2023-05-17T08:38:58.711Z,10.75
2023-05-17T08:41:26.056Z,10.79
2023-05-17T08:43:54.298Z,11.04
2023-05-17T08:46:23.820Z,10.90
2023-05-17T08:48:52.856Z,11.10
2023-05-17T08:51:20.891Z,10.91
2023-05-17T08:53:50.698Z,10.82
2023-05-17T08:56:20.858Z,10.89
2023-05-17T08:58:57.146Z,10.96
2023-05-17T09:01:27.189Z,10.80
2023-05-17T09:03:56.034Z,10.95
2023-05-17T09:06:24.396Z,10.92
2023-05-17T09:08:54.911Z,10.90
2023-05-17T09:11:30.367Z,10.94
2023-05-17T09:14:05.998Z,10.90
2023-05-17T09:16:36.352Z,11.08
2023-05-17T09:19:06.444Z,11.18
2023-05-17T09:21:34.530Z,11.42
2023-05-17T09:24:07.152Z,11.42
2023-05-17T09:26:43.008Z,11.15
2023-05-17T09:29:12.660Z,11.12
2023-05-17T09:31:41.601Z,10.84
2023-05-17T09:34:09.761Z,10.81
2023-05-17T09:36:38.801Z,10.80
2023-05-17T09:39:12.293Z,10.61
2023-05-17T09:41:51.208Z,10.68
2023-05-17T09:44:18.463Z,10.62
2023-05-17T09:46:48.443Z,10.89
2023-05-17T09:49:17.532Z,10.76
2023-05-17T09:51:48.696Z,10.75
2023-05-17T09:54:17.891Z,10.88
2023-05-17T09:56:53.142Z,10.62
2023-05-17T09:59:21.019Z,10.48
2023-05-17T10:01:50.504Z,10.31
2023-05-17T10:04:23.310Z,10.39
2023-05-17T10:06:53.252Z,10.42
2023-05-17T10:09:23.069Z,10.45
2023-05-17T10:11:56.688Z,10.37
2023-05-17T10:14:36.220Z,10.35
2023-05-17T10:17:04.302Z,10.30
2023-05-17T10:19:32.566Z,10.12
2023-05-17T10:22:11.601Z,10.26
2023-05-17T10:24:52.353Z,10.18
2023-05-17T10:27:20.971Z,10.28
2023-05-17T10:29:50.706Z,10.11
2023-05-17T10:32:23.597Z,10.07
2023-05-17T10:35:02.069Z,10.11
2023-05-17T10:37:34.763Z,10.16
2023-05-17T10:40:02.393Z,10.41
2023-05-17T10:42:32.388Z,10.50
2023-05-17T10:45:01.779Z,10.40
2023-05-17T10:47:33.604Z,10.58
2023-05-17T10:50:04.791Z,10.34
2023-05-17T10:52:32.307Z,10.51
2023-05-17T10:55:00.810Z,10.39
2023-05-17T10:57:50.554Z,10.25
2023-05-17T11:00:31.362Z,10.20
2023-05-17T11:03:22.789Z,10.42
2023-05-17T11:06:24.403Z,10.47
2023-05-17T11:09:32.392Z,10.05
2023-05-17T11:12:09.321Z,10.29
2023-05-17T11:14:45.757Z,10.24
2023-05-17T11:17:21.388Z,9.97
2023-05-17T11:19:55.157Z,10.32
2023-05-17T11:22:27.701Z,10.14
2023-05-17T11:24:57.833Z,10.26
2023-05-17T11:27:28.891Z,10.00
2023-05-17T11:29:57.610Z,10.12
2023-05-17T11:32:32.998Z,10.27
2023-05-17T11:35:01.962Z,10.33
2023-05-17T11:37:31.389Z,10.29
2023-05-17T11:40:08.413Z,10.40
2023-05-17T11:42:37.494Z,10.33
2023-05-17T11:45:06.456Z,10.04
2023-05-17T11:47:38.853Z,10.19
2023-05-17T11:50:07.998Z,9.97
2023-05-17T11:52:35.531Z,10.00
2023-05-17T11:55:04.124Z,10.06
2023-05-17T11:57:32.773Z,10.15
2023-05-17T12:00:05.716Z,10.16
2023-05-17T12:02:42.320Z,9.94
2023-05-17T12:05:09.840Z,10.08
2023-05-17T12:07:37.651Z,10.22
2023-05-17T12:10:06.814Z,10.19
2023-05-17T12:12:34.503Z,10.20
2023-05-17T12:15:02.164Z,10.22
2023-05-17T12:17:38.683Z,10.39
2023-05-17T12:20:10.472Z,10.34
2023-05-17T12:22:57.339Z,9.75
2023-05-17T12:25:27.623Z,10.01
2023-05-17T12:28:22.351Z,10.04
2023-05-17T12:30:58.585Z,10.04
2023-05-17T12:33:26.877Z,10.27
2023-05-17T12:35:54.660Z,10.26
2023-05-17T12:38:22.288Z,10.32
2023-05-17T12:40:50.075Z,10.16
2023-05-17T12:43:18.777Z,10.05
2023-05-17T12:45:48.137Z,9.97
2023-05-17T12:48:15.705Z,9.86
2023-05-17T12:50:46.511Z,9.79
2023-05-17T12:53:13.936Z,9.88
2023-05-17T12:55:41.378Z,10.03
2023-05-17T12:58:08.711Z,10.13
2023-05-17T13:00:36.218Z,10.19
2023-05-17T13:03:11.052Z,10.27
2023-05-17T13:05:39.901Z,10.17
2023-05-17T13:08:21.531Z,10.10
2023-05-17T13:10:48.803Z,10.04
2023-05-17T13:13:20.690Z,9.85
2023-05-17T13:15:48.112Z,10.03
2023-05-17T13:18:16.511Z,10.33
2023-05-17T13:20:44.227Z,10.40
2023-05-17T13:23:11.432Z,10.17
2023-05-17T13:25:38.814Z,10.30
2023-05-17T13:28:06.225Z,10.33
2023-05-17T13:30:33.537Z,10.28
2023-05-17T13:33:01.041Z,10.34
2023-05-17T13:35:28.357Z,10.39
2023-05-17T13:37:58.044Z,10.13
2023-05-17T13:40:25.554Z,10.11
2023-05-17T13:42:52.831Z,10.15
2023-05-17T13:45:20.126Z,10.12
2023-05-17T13:47:47.696Z,10.01
2023-05-17T13:50:17.346Z,10.30
2023-05-17T13:52:44.767Z,10.17
2023-05-17T13:55:12.327Z,10.16
2023-05-17T13:57:39.717Z,10.33
2023-05-17T14:00:08.278Z,10.44
2023-05-17T14:02:36.866Z,10.27
2023-05-17T14:05:07.327Z,10.38
2023-05-17T14:07:34.779Z,10.56
2023-05-17T14:10:02.363Z,10.54
2023-05-17T14:12:29.956Z,10.63
2023-05-17T14:14:57.427Z,10.67
2023-05-17T14:17:24.921Z,10.64
2023-05-17T14:19:52.795Z,10.60
2023-05-17T14:22:20.183Z,10.62
2023-05-17T14:24:47.629Z,10.36
2023-05-17T14:27:15.378Z,10.40
2023-05-17T14:29:42.704Z,10.36
2023-05-17T14:32:13.000Z,10.44
2023-05-17T14:34:40.832Z,10.57
2023-05-17T14:37:08.664Z,10.70
2023-05-17T14:39:36.299Z,10.63
2023-05-17T14:42:04.265Z,10.62
2023-05-17T14:44:31.701Z,10.58
2023-05-17T14:46:59.135Z,10.74
2023-05-17T14:49:26.492Z,10.69
2023-05-17T14:51:53.812Z,10.73
2023-05-17T14:54:22.023Z,10.78
2023-05-17T14:56:49.327Z,10.74
2023-05-17T14:59:16.731Z,10.85
2023-05-17T15:01:43.935Z,10.95
2023-05-17T15:04:11.564Z,10.84
2023-05-17T15:06:38.995Z,10.58
2023-05-17T15:09:06.448Z,10.74
2023-05-17T15:11:33.942Z,10.68
2023-05-17T15:14:02.487Z,10.62
2023-05-17T15:16:30.094Z,10.60
2023-05-17T15:18:58.106Z,10.52
2023-05-17T15:21:26.167Z,10.47
2023-05-17T15:23:53.538Z,10.31
2023-05-17T15:26:21.590Z,10.25
2023-05-17T15:28:52.227Z,10.45
2023-05-17T15:31:19.624Z,10.59
2023-05-17T15:33:47.222Z,10.55
2023-05-17T15:36:16.436Z,10.51
2023-05-17T15:38:45.042Z,10.50
2023-05-17T15:41:16.101Z,10.62
2023-05-17T15:43:44.282Z,10.57
2023-05-17T15:46:12.929Z,10.60
2023-05-17T15:48:40.406Z,10.58
2023-05-17T15:51:07.820Z,10.53
2023-05-17T15:53:35.153Z,10.34
2023-05-17T15:56:02.670Z,10.38
2023-05-17T15:58:33.526Z,10.48
2023-05-17T16:01:05.987Z,10.56
2023-05-17T16:03:34.210Z,10.58
2023-05-17T16:06:01.769Z,10.49
2023-05-17T16:08:29.370Z,10.52
2023-05-17T16:10:56.948Z,10.55
2023-05-17T16:13:24.422Z,10.60
2023-05-17T16:15:51.946Z,10.63
2023-05-17T16:18:19.524Z,10.35
2023-05-17T16:20:46.899Z,10.46
2023-05-17T16:23:14.293Z,10.49
2023-05-17T16:25:42.265Z,10.64
2023-05-17T16:28:09.525Z,10.64
2023-05-17T16:30:37.589Z,10.60
2023-05-17T16:33:08.266Z,10.48
2023-05-17T16:35:36.010Z,10.45
2023-05-17T16:38:03.341Z,10.50
2023-05-17T16:40:31.220Z,10.39
2023-05-17T16:42:58.791Z,10.45
2023-05-17T16:45:26.100Z,10.45
2023-05-17T16:47:53.502Z,10.52
2023-05-17T16:50:20.984Z,10.60
2023-05-17T16:52:48.397Z,10.61
2023-05-17T16:55:15.905Z,10.63
2023-05-17T16:57:43.873Z,10.56
2023-05-17T17:00:12.200Z,10.54
2023-05-17T17:02:39.556Z,10.48
2023-05-17T17:05:07.795Z,10.42
2023-05-17T17:07:35.130Z,10.47
2023-05-17T17:10:02.688Z,10.40
2023-05-17T17:12:30.026Z,10.49
2023-05-17T17:14:57.577Z,10.51
2023-05-17T17:17:24.921Z,10.59
2023-05-17T17:19:52.672Z,10.52
2023-05-17T17:22:20.260Z,10.64
2023-05-17T17:24:47.674Z,10.67
2023-05-17T17:27:15.047Z,10.62
2023-05-17T17:29:42.349Z,10.50
2023-05-17T17:32:09.792Z,10.28
2023-05-17T17:34:37.270Z,10.55
2023-05-17T17:37:04.766Z,10.50
2023-05-17T17:39:32.286Z,10.62
2023-05-17T17:41:59.826Z,10.56
2023-05-17T17:44:27.589Z,10.54
2023-05-17T17:46:55.487Z,10.46
2023-05-17T17:49:23.008Z,10.43
2023-05-17T17:51:50.283Z,10.24
2023-05-17T17:54:17.769Z,10.33
2023-05-17T17:56:45.539Z,10.42
2023-05-17T17:59:13.462Z,10.46
2023-05-17T18:01:41.022Z,10.52
2023-05-17T18:04:09.653Z,10.45
2023-05-17T18:06:37.266Z,10.49
2023-05-17T18:09:05.938Z,10.56
2023-05-17T18:11:33.401Z,10.43
2023-05-17T18:14:02.482Z,10.55
2023-05-17T18:16:30.794Z,10.39
2023-05-17T18:18:58.187Z,10.35
2023-05-17T18:21:25.624Z,10.57
2023-05-17T18:23:53.111Z,10.53
2023-05-17T18:26:21.364Z,10.35
2023-05-17T18:28:48.839Z,10.55
2023-05-17T18:31:16.377Z,10.55
2023-05-17T18:33:43.602Z,10.65
2023-05-17T18:36:10.942Z,10.62
2023-05-17T18:38:38.424Z,10.68
2023-05-17T18:41:05.872Z,10.58
2023-05-17T18:43:33.655Z,10.62
2023-05-17T18:46:01.161Z,10.56
2023-05-17T18:48:28.625Z,10.52
2023-05-17T18:50:57.627Z,10.56
2023-05-17T18:53:25.232Z,10.54
2023-05-17T18:55:52.627Z,10.51
2023-05-17T18:58:20.277Z,10.58
2023-05-17T19:00:48.719Z,10.64
2023-05-17T19:03:16.167Z,10.52
2023-05-17T19:05:43.617Z,10.66
2023-05-17T19:08:11.004Z,10.76
2023-05-17T19:10:38.453Z,10.72
2023-05-17T19:13:08.702Z,10.73
2023-05-17T19:15:36.353Z,10.63
2023-05-17T19:18:04.283Z,10.67
2023-05-17T19:20:32.011Z,10.63
2023-05-17T19:23:01.062Z,10.59
2023-05-17T19:25:28.795Z,10.61
2023-05-17T19:27:56.420Z,10.61
2023-05-17T19:30:23.904Z,10.56
2023-05-17T19:32:51.411Z,10.58
2023-05-17T19:35:19.368Z,10.66
2023-05-17T19:37:47.805Z,10.69
2023-05-17T19:40:18.738Z,10.73
2023-05-17T19:42:46.926Z,10.76
2023-05-17T19:45:14.759Z,10.77
2023-05-17T19:47:42.801Z,10.69
2023-05-17T19:50:11.763Z,10.71
2023-05-17T19:52:39.486Z,10.73
2023-05-17T19:55:07.102Z,10.76
2023-05-17T19:57:34.671Z,10.58
2023-05-17T20:00:02.250Z,10.70
2023-05-17T20:02:31.804Z,10.60
2023-05-17T20:05:02.241Z,10.57
2023-05-17T20:07:33.492Z,10.63
2023-05-17T20:10:00.850Z,10.70
2023-05-17T20:12:28.335Z,10.71
2023-05-17T20:14:55.725Z,10.70
2023-05-17T20:17:23.148Z,10.60
2023-05-17T20:19:51.462Z,10.68
2023-05-17T20:22:20.935Z,10.62
2023-05-17T20:24:48.345Z,10.64
2023-05-17T20:27:15.835Z,10.55
2023-05-17T20:29:43.425Z,10.66
2023-05-17T20:32:10.846Z,10.62
2023-05-17T20:34:38.323Z,10.52
2023-05-17T20:37:06.113Z,10.56
2023-05-17T20:39:33.344Z,10.55
2023-05-17T20:42:01.480Z,10.44
2023-05-17T20:44:28.773Z,10.40
2023-05-17T20:46:57.011Z,10.43
2023-05-17T20:49:24.191Z,10.45
2023-05-17T20:51:51.505Z,10.52
2023-05-17T20:54:18.900Z,10.52
2023-05-17T20:56:46.406Z,10.49
2023-05-17T20:59:13.748Z,10.45
2023-05-17T21:01:41.584Z,10.45
2023-05-17T21:04:09.243Z,10.50
2023-05-17T21:06:36.690Z,10.34
2023-05-17T21:09:04.069Z,10.43
2023-05-17T21:11:31.410Z,10.53
2023-05-17T21:13:59.819Z,10.49
2023-05-17T21:16:27.425Z,10.43
2023-05-17T21:18:55.145Z,10.47
2023-05-17T21:21:22.721Z,10.40
2023-05-17T21:23:50.064Z,10.30
2023-05-17T21:26:17.424Z,10.23
2023-05-17T21:28:44.682Z,10.36
2023-05-17T21:31:12.113Z,10.40
2023-05-17T21:33:39.556Z,10.29
2023-05-17T21:36:07.116Z,10.19
2023-05-17T21:38:34.481Z,10.37
2023-05-17T21:41:01.901Z,10.44
2023-05-17T21:43:29.117Z,10.43
2023-05-17T21:45:56.740Z,10.43
2023-05-17T21:48:24.624Z,10.38
2023-05-17T21:50:52.072Z,10.44
2023-05-17T21:53:19.304Z,10.43
2023-05-17T21:58:20.675Z,10.44
2023-05-17T22:00:48.064Z,10.27
2023-05-17T22:03:15.852Z,10.42
2023-05-17T22:05:43.141Z,10.44
2023-05-17T22:08:10.484Z,10.20
2023-05-17T22:10:40.326Z,10.21
2023-05-17T22:13:12.314Z,10.13
2023-05-17T22:15:41.687Z,10.21
2023-05-17T22:18:12.512Z,10.37
2023-05-17T22:20:40.075Z,10.35
2023-05-17T22:23:07.580Z,10.38
2023-05-17T22:25:35.544Z,10.33
2023-05-17T22:28:03.115Z,10.29
2023-05-17T22:30:30.584Z,10.29
2023-05-17T22:32:58.217Z,10.11
2023-05-17T22:35:25.735Z,10.07
2023-05-17T22:37:53.594Z,10.15
2023-05-17T22:40:21.387Z,10.14
2023-05-17T22:42:50.240Z,10.16
2023-05-17T22:45:18.344Z,10.16
2023-05-17T22:47:47.166Z,10.15
2023-05-17T22:50:15.907Z,10.18
2023-05-17T22:52:43.578Z,10.00
2023-05-17T22:55:11.406Z,10.07
2023-05-17T22:57:39.206Z,10.15
2023-05-17T23:00:09.317Z,10.10
2023-05-17T23:02:36.738Z,10.09
2023-05-17T23:05:04.939Z,10.12
2023-05-17T23:07:38.780Z,10.10
2023-05-17T23:10:11.706Z,10.15
2023-05-17T23:12:39.293Z,10.19
2023-05-17T23:15:08.043Z,10.13
2023-05-17T23:17:35.601Z,10.06
2023-05-17T23:20:07.586Z,9.92
2023-05-17T23:22:35.029Z,10.09
2023-05-17T23:25:06.165Z,10.10
2023-05-17T23:27:35.470Z,10.10
2023-05-17T23:30:04.564Z,10.05
2023-05-17T23:32:32.851Z,9.98
2023-05-17T23:35:04.316Z,9.99
2023-05-17T23:37:33.652Z,10.00
2023-05-17T23:40:01.194Z,10.09
2023-05-17T23:42:31.980Z,10.09
2023-05-17T23:45:00.780Z,10.13
2023-05-17T23:47:28.416Z,10.05
2023-05-17T23:49:56.692Z,10.13
2023-05-17T23:52:24.572Z,10.05
2023-05-17T23:54:51.984Z,10.13
2023-05-17T23:57:19.444Z,9.98
2023-05-17T23:59:46.759Z,9.91
